sensor_id;sensor_type;location;lat;lon;timestamp;P1;durP1;ratioP1;P2;durP2;ratioP2
23242;SDS011;11790;49.578;11.214;2024-02-26T00:03:53;13.02;;;5.45;;
23242;SDS011;11790;49.578;11.214;2024-02-26T00:08:55;12.00;;;5.50;;
23242;SDS011;11790;49.578;11.214;2024-02-26T00:13:55;9.10;;;5.00;;
23242;SDS011;11790;49.578;11.214;2024-02-26T00:18:55;9.82;;;5.10;;
23242;SDS011;11790;49.578;11.214;2024-02-26T00:23:56;11.93;;;5.55;;
23242;SDS011;11790;49.578;11.214;2024-02-26T00:28:56;12.00;;;6.25;;
23242;SDS011;11790;49.578;11.214;2024-02-26T00:33:56;9.38;;;5.57;;
23242;SDS011;11790;49.578;11.214;2024-02-26T00:38:58;13.70;;;6.20;;
23242;SDS011;11790;49.578;11.214;2024-02-26T00:43:58;9.10;;;5.30;;
23242;SDS011;11790;49.578;11.214;2024-02-26T00:48:59;10.05;;;5.70;;
23242;SDS011;11790;49.578;11.214;2024-02-26T00:54:00;9.40;;;5.05;;
23242;SDS011;11790;49.578;11.214;2024-02-26T00:59:00;8.77;;;5.75;;
23242;SDS011;11790;49.578;11.214;2024-02-26T01:04:01;10.43;;;5.70;;
23242;SDS011;11790;49.578;11.214;2024-02-26T01:09:01;10.57;;;5.47;;
23242;SDS011;11790;49.578;11.214;2024-02-26T01:14:01;9.20;;;5.68;;
23242;SDS011;11790;49.578;11.214;2024-02-26T01:19:01;9.52;;;5.22;;
23242;SDS011;11790;49.578;11.214;2024-02-26T01:24:03;9.93;;;5.38;;
23242;SDS011;11790;49.578;11.214;2024-02-26T01:29:03;10.40;;;5.30;;
23242;SDS011;11790;49.578;11.214;2024-02-26T01:34:03;11.27;;;6.00;;
23242;SDS011;11790;49.578;11.214;2024-02-26T01:39:03;13.13;;;6.05;;
23242;SDS011;11790;49.578;11.214;2024-02-26T01:44:04;10.07;;;5.55;;
23242;SDS011;11790;49.578;11.214;2024-02-26T01:49:05;9.30;;;5.32;;
23242;SDS011;11790;49.578;11.214;2024-02-26T01:54:06;10.40;;;5.45;;
23242;SDS011;11790;49.578;11.214;2024-02-26T01:59:08;9.35;;;5.07;;
23242;SDS011;11790;49.578;11.214;2024-02-26T02:04:08;10.60;;;4.68;;
23242;SDS011;11790;49.578;11.214;2024-02-26T02:09:08;9.55;;;5.45;;
23242;SDS011;11790;49.578;11.214;2024-02-26T02:14:09;9.48;;;5.38;;
23242;SDS011;11790;49.578;11.214;2024-02-26T02:19:09;9.52;;;4.95;;
23242;SDS011;11790;49.578;11.214;2024-02-26T02:24:09;10.38;;;5.55;;
23242;SDS011;11790;49.578;11.214;2024-02-26T02:29:10;10.63;;;5.23;;
23242;SDS011;11790;49.578;11.214;2024-02-26T02:34:11;9.30;;;4.68;;
23242;SDS011;11790;49.578;11.214;2024-02-26T02:39:12;11.18;;;5.72;;
23242;SDS011;11790;49.578;11.214;2024-02-26T02:44:12;12.27;;;5.32;;
23242;SDS011;11790;49.578;11.214;2024-02-26T02:49:12;9.30;;;5.53;;
23242;SDS011;11790;49.578;11.214;2024-02-26T02:54:14;9.80;;;5.32;;
23242;SDS011;11790;49.578;11.214;2024-02-26T02:59:14;10.25;;;5.32;;
23242;SDS011;11790;49.578;11.214;2024-02-26T03:04:14;9.95;;;4.75;;
23242;SDS011;11790;49.578;11.214;2024-02-26T03:09:14;9.98;;;4.93;;
23242;SDS011;11790;49.578;11.214;2024-02-26T03:14:15;9.57;;;4.72;;
23242;SDS011;11790;49.578;11.214;2024-02-26T03:19:15;10.82;;;5.32;;
23242;SDS011;11790;49.578;11.214;2024-02-26T03:24:18;8.77;;;4.65;;
23242;SDS011;11790;49.578;11.214;2024-02-26T03:29:19;8.57;;;4.93;;
23242;SDS011;11790;49.578;11.214;2024-02-26T03:34:19;10.50;;;4.80;;
23242;SDS011;11790;49.578;11.214;2024-02-26T03:39:19;9.73;;;4.90;;
23242;SDS011;11790;49.578;11.214;2024-02-26T03:44:20;8.20;;;4.53;;
23242;SDS011;11790;49.578;11.214;2024-02-26T03:49:20;9.20;;;4.35;;
23242;SDS011;11790;49.578;11.214;2024-02-26T03:54:20;7.75;;;4.50;;
23242;SDS011;11790;49.578;11.214;2024-02-26T03:59:21;7.95;;;4.15;;
23242;SDS011;11790;49.578;11.214;2024-02-26T04:04:23;7.82;;;4.03;;
23242;SDS011;11790;49.578;11.214;2024-02-26T04:09:24;7.15;;;3.85;;
23242;SDS011;11790;49.578;11.214;2024-02-26T04:14:24;6.60;;;3.72;;
23242;SDS011;11790;49.578;11.214;2024-02-26T04:19:24;7.88;;;3.90;;
23242;SDS011;11790;49.578;11.214;2024-02-26T04:24:24;9.40;;;3.70;;
23242;SDS011;11790;49.578;11.214;2024-02-26T04:29:24;7.03;;;3.65;;
23242;SDS011;11790;49.578;11.214;2024-02-26T04:34:25;7.30;;;3.58;;
23242;SDS011;11790;49.578;11.214;2024-02-26T04:39:25;6.93;;;3.70;;
23242;SDS011;11790;49.578;11.214;2024-02-26T04:44:26;7.18;;;3.80;;
23242;SDS011;11790;49.578;11.214;2024-02-26T04:49:26;5.13;;;3.50;;
23242;SDS011;11790;49.578;11.214;2024-02-26T04:54:26;7.27;;;3.50;;
23242;SDS011;11790;49.578;11.214;2024-02-26T04:59:26;8.02;;;4.53;;
23242;SDS011;11790;49.578;11.214;2024-02-26T05:04:27;9.73;;;5.00;;
23242;SDS011;11790;49.578;11.214;2024-02-26T05:09:27;6.77;;;3.73;;
23242;SDS011;11790;49.578;11.214;2024-02-26T05:14:27;6.60;;;3.53;;
23242;SDS011;11790;49.578;11.214;2024-02-26T05:19:28;6.63;;;3.63;;
23242;SDS011;11790;49.578;11.214;2024-02-26T05:24:28;7.70;;;4.10;;
23242;SDS011;11790;49.578;11.214;2024-02-26T05:29:28;8.40;;;3.77;;
23242;SDS011;11790;49.578;11.214;2024-02-26T05:34:29;9.30;;;4.00;;
23242;SDS011;11790;49.578;11.214;2024-02-26T05:39:30;8.48;;;4.07;;
23242;SDS011;11790;49.578;11.214;2024-02-26T05:44:30;8.93;;;4.00;;
23242;SDS011;11790;49.578;11.214;2024-02-26T05:49:30;7.80;;;4.22;;
23242;SDS011;11790;49.578;11.214;2024-02-26T05:54:32;7.57;;;4.22;;
23242;SDS011;11790;49.578;11.214;2024-02-26T05:59:32;8.80;;;4.63;;
23242;SDS011;11790;49.578;11.214;2024-02-26T06:04:33;8.50;;;4.90;;
23242;SDS011;11790;49.578;11.214;2024-02-26T06:09:33;8.13;;;4.72;;
23242;SDS011;11790;49.578;11.214;2024-02-26T06:14:33;8.23;;;4.20;;
23242;SDS011;11790;49.578;11.214;2024-02-26T06:19:33;7.57;;;4.57;;
23242;SDS011;11790;49.578;11.214;2024-02-26T06:24:34;10.73;;;5.05;;
23242;SDS011;11790;49.578;11.214;2024-02-26T06:29:43;9.45;;;4.65;;
23242;SDS011;11790;49.578;11.214;2024-02-26T06:34:43;9.00;;;4.55;;
23242;SDS011;11790;49.578;11.214;2024-02-26T06:39:43;7.25;;;4.75;;
23242;SDS011;11790;49.578;11.214;2024-02-26T06:44:43;9.38;;;4.53;;
23242;SDS011;11790;49.578;11.214;2024-02-26T06:49:44;12.15;;;6.05;;
23242;SDS011;11790;49.578;11.214;2024-02-26T06:54:44;9.07;;;5.28;;
23242;SDS011;11790;49.578;11.214;2024-02-26T06:59:44;7.70;;;4.53;;
23242;SDS011;11790;49.578;11.214;2024-02-26T07:04:47;9.27;;;4.10;;
23242;SDS011;11790;49.578;11.214;2024-02-26T07:09:47;8.80;;;4.40;;
23242;SDS011;11790;49.578;11.214;2024-02-26T07:14:49;7.07;;;4.65;;
23242;SDS011;11790;49.578;11.214;2024-02-26T07:19:50;7.97;;;4.95;;
23242;SDS011;11790;49.578;11.214;2024-02-26T07:24:50;10.35;;;4.45;;
23242;SDS011;11790;49.578;11.214;2024-02-26T07:29:51;9.75;;;4.65;;
23242;SDS011;11790;49.578;11.214;2024-02-26T07:34:51;9.63;;;4.93;;
23242;SDS011;11790;49.578;11.214;2024-02-26T07:39:51;8.77;;;5.22;;
23242;SDS011;11790;49.578;11.214;2024-02-26T07:44:52;9.10;;;5.32;;
23242;SDS011;11790;49.578;11.214;2024-02-26T07:49:52;11.30;;;5.22;;
23242;SDS011;11790;49.578;11.214;2024-02-26T08:05:13;10.07;;;5.47;;
23242;SDS011;11790;49.578;11.214;2024-02-26T08:10:13;10.05;;;5.40;;
23242;SDS011;11790;49.578;11.214;2024-02-26T08:15:13;9.00;;;5.60;;
23242;SDS011;11790;49.578;11.214;2024-02-26T08:20:13;10.50;;;6.38;;
23242;SDS011;11790;49.578;11.214;2024-02-26T08:25:14;11.38;;;6.70;;
23242;SDS011;11790;49.578;11.214;2024-02-26T08:30:16;9.60;;;5.75;;
23242;SDS011;11790;49.578;11.214;2024-02-26T08:35:17;9.00;;;5.22;;
23242;SDS011;11790;49.578;11.214;2024-02-26T08:40:17;11.55;;;6.05;;
23242;SDS011;11790;49.578;11.214;2024-02-26T08:45:17;8.43;;;5.05;;
23242;SDS011;11790;49.578;11.214;2024-02-26T08:50:18;8.32;;;5.10;;
23242;SDS011;11790;49.578;11.214;2024-02-26T08:55:18;9.10;;;5.40;;
23242;SDS011;11790;49.578;11.214;2024-02-26T09:00:18;12.13;;;5.90;;
23242;SDS011;11790;49.578;11.214;2024-02-26T09:05:21;9.07;;;5.38;;
23242;SDS011;11790;49.578;11.214;2024-02-26T09:10:21;10.55;;;5.43;;
23242;SDS011;11790;49.578;11.214;2024-02-26T09:15:22;7.10;;;4.78;;
23242;SDS011;11790;49.578;11.214;2024-02-26T09:20:22;9.25;;;5.55;;
23242;SDS011;11790;49.578;11.214;2024-02-26T09:25:23;10.77;;;4.82;;
23242;SDS011;11790;49.578;11.214;2024-02-26T09:30:23;10.27;;;5.72;;
23242;SDS011;11790;49.578;11.214;2024-02-26T09:35:24;7.60;;;5.00;;
23242;SDS011;11790;49.578;11.214;2024-02-26T09:40:24;7.20;;;4.50;;
23242;SDS011;11790;49.578;11.214;2024-02-26T09:45:25;9.40;;;4.47;;
23242;SDS011;11790;49.578;11.214;2024-02-26T09:50:27;7.20;;;4.45;;
23242;SDS011;11790;49.578;11.214;2024-02-26T09:55:27;7.63;;;4.22;;
23242;SDS011;11790;49.578;11.214;2024-02-26T10:00:28;6.37;;;4.00;;
23242;SDS011;11790;49.578;11.214;2024-02-26T10:05:32;5.50;;;3.30;;
23242;SDS011;11790;49.578;11.214;2024-02-26T10:10:33;5.20;;;3.40;;
23242;SDS011;11790;49.578;11.214;2024-02-26T10:15:33;5.03;;;3.42;;
23242;SDS011;11790;49.578;11.214;2024-02-26T10:20:34;5.03;;;3.25;;
23242;SDS011;11790;49.578;11.214;2024-02-26T10:25:34;5.82;;;3.63;;
23242;SDS011;11790;49.578;11.214;2024-02-26T10:30:36;5.10;;;3.67;;
23242;SDS011;11790;49.578;11.214;2024-02-26T10:35:36;6.05;;;3.85;;
23242;SDS011;11790;49.578;11.214;2024-02-26T10:40:40;7.82;;;3.80;;
23242;SDS011;11790;49.578;11.214;2024-02-26T10:45:40;5.47;;;3.40;;
23242;SDS011;11790;49.578;11.214;2024-02-26T10:50:43;6.22;;;3.92;;
23242;SDS011;11790;49.578;11.214;2024-02-26T10:55:45;5.43;;;3.42;;
23242;SDS011;11790;49.578;11.214;2024-02-26T11:00:46;5.25;;;3.72;;
23242;SDS011;11790;49.578;11.214;2024-02-26T11:05:50;5.47;;;3.85;;
23242;SDS011;11790;49.578;11.214;2024-02-26T11:10:52;4.88;;;3.30;;
23242;SDS011;11790;49.578;11.214;2024-02-26T11:15:53;5.18;;;3.42;;
23242;SDS011;11790;49.578;11.214;2024-02-26T11:20:54;5.65;;;3.60;;
23242;SDS011;11790;49.578;11.214;2024-02-26T11:25:57;5.72;;;3.25;;
23242;SDS011;11790;49.578;11.214;2024-02-26T11:30:59;5.32;;;3.70;;
23242;SDS011;11790;49.578;11.214;2024-02-26T11:36:01;6.45;;;3.20;;
23242;SDS011;11790;49.578;11.214;2024-02-26T11:41:01;5.97;;;3.08;;
23242;SDS011;11790;49.578;11.214;2024-02-26T11:51:40;5.60;;;3.08;;
23242;SDS011;11790;49.578;11.214;2024-02-26T11:56:41;4.45;;;3.13;;
23242;SDS011;11790;49.578;11.214;2024-02-26T12:01:45;4.10;;;2.78;;
23242;SDS011;11790;49.578;11.214;2024-02-26T12:11:48;4.32;;;2.67;;
23242;SDS011;11790;49.578;11.214;2024-02-26T12:16:49;3.55;;;2.60;;
23242;SDS011;11790;49.578;11.214;2024-02-26T12:21:53;3.92;;;2.40;;
23242;SDS011;11790;49.578;11.214;2024-02-26T12:26:54;3.78;;;2.47;;
23242;SDS011;11790;49.578;11.214;2024-02-26T12:31:55;3.08;;;2.00;;
23242;SDS011;11790;49.578;11.214;2024-02-26T12:36:55;2.97;;;2.15;;
23242;SDS011;11790;49.578;11.214;2024-02-26T12:41:57;3.00;;;2.38;;
23242;SDS011;11790;49.578;11.214;2024-02-26T12:47:02;2.75;;;1.73;;
23242;SDS011;11790;49.578;11.214;2024-02-26T12:52:03;3.75;;;2.30;;
23242;SDS011;11790;49.578;11.214;2024-02-26T12:57:03;3.92;;;2.15;;
23242;SDS011;11790;49.578;11.214;2024-02-26T13:02:04;3.60;;;2.50;;
23242;SDS011;11790;49.578;11.214;2024-02-26T13:07:04;4.20;;;2.20;;
23242;SDS011;11790;49.578;11.214;2024-02-26T13:12:05;3.67;;;1.93;;
23242;SDS011;11790;49.578;11.214;2024-02-26T13:17:06;2.63;;;1.67;;
23242;SDS011;11790;49.578;11.214;2024-02-26T13:22:06;3.10;;;1.63;;
23242;SDS011;11790;49.578;11.214;2024-02-26T13:27:07;3.05;;;2.17;;
23242;SDS011;11790;49.578;11.214;2024-02-26T13:32:07;3.10;;;1.90;;
23242;SDS011;11790;49.578;11.214;2024-02-26T13:37:12;3.55;;;1.83;;
23242;SDS011;11790;49.578;11.214;2024-02-26T13:42:12;3.65;;;1.70;;
23242;SDS011;11790;49.578;11.214;2024-02-26T13:47:12;4.25;;;1.90;;
23242;SDS011;11790;49.578;11.214;2024-02-26T13:52:13;2.47;;;1.88;;
23242;SDS011;11790;49.578;11.214;2024-02-26T13:57:14;2.45;;;1.65;;
23242;SDS011;11790;49.578;11.214;2024-02-26T14:02:14;2.40;;;1.80;;
23242;SDS011;11790;49.578;11.214;2024-02-26T14:07:14;2.30;;;1.52;;
23242;SDS011;11790;49.578;11.214;2024-02-26T14:12:14;3.07;;;2.00;;
23242;SDS011;11790;49.578;11.214;2024-02-26T14:17:15;3.17;;;2.00;;
23242;SDS011;11790;49.578;11.214;2024-02-26T14:22:15;4.55;;;2.45;;
23242;SDS011;11790;49.578;11.214;2024-02-26T14:27:18;4.63;;;2.50;;
23242;SDS011;11790;49.578;11.214;2024-02-26T14:32:20;4.35;;;2.28;;
23242;SDS011;11790;49.578;11.214;2024-02-26T14:37:20;5.13;;;2.35;;
23242;SDS011;11790;49.578;11.214;2024-02-26T14:42:21;4.22;;;2.30;;
23242;SDS011;11790;49.578;11.214;2024-02-26T14:47:21;3.80;;;2.17;;
23242;SDS011;11790;49.578;11.214;2024-02-26T14:57:59;4.90;;;2.72;;
23242;SDS011;11790;49.578;11.214;2024-02-26T15:02:59;4.23;;;2.90;;
23242;SDS011;11790;49.578;11.214;2024-02-26T15:08:00;6.05;;;3.42;;
23242;SDS011;11790;49.578;11.214;2024-02-26T15:13:00;4.50;;;2.90;;
23242;SDS011;11790;49.578;11.214;2024-02-26T15:18:01;6.53;;;3.30;;
23242;SDS011;11790;49.578;11.214;2024-02-26T15:23:06;5.37;;;3.30;;
23242;SDS011;11790;49.578;11.214;2024-02-26T15:28:16;18.80;;;4.35;;
23242;SDS011;11790;49.578;11.214;2024-02-26T15:38:54;6.72;;;3.92;;
23242;SDS011;11790;49.578;11.214;2024-02-26T16:06:29;7.22;;;4.93;;
23242;SDS011;11790;49.578;11.214;2024-02-26T16:11:31;8.02;;;4.68;;
23242;SDS011;11790;49.578;11.214;2024-02-26T16:16:32;7.28;;;4.88;;
23242;SDS011;11790;49.578;11.214;2024-02-26T16:21:33;10.38;;;4.85;;
23242;SDS011;11790;49.578;11.214;2024-02-26T16:26:33;7.43;;;4.65;;
23242;SDS011;11790;49.578;11.214;2024-02-26T16:31:34;8.75;;;4.57;;
23242;SDS011;11790;49.578;11.214;2024-02-26T16:36:37;12.10;;;5.50;;
23242;SDS011;11790;49.578;11.214;2024-02-26T16:41:37;7.53;;;4.50;;
23242;SDS011;11790;49.578;11.214;2024-02-26T16:46:38;6.87;;;4.40;;
23242;SDS011;11790;49.578;11.214;2024-02-26T16:51:38;8.57;;;4.80;;
23242;SDS011;11790;49.578;11.214;2024-02-26T16:56:39;11.68;;;6.30;;
23242;SDS011;11790;49.578;11.214;2024-02-26T17:01:43;9.20;;;5.68;;
23242;SDS011;11790;49.578;11.214;2024-02-26T17:06:43;10.20;;;6.18;;
23242;SDS011;11790;49.578;11.214;2024-02-26T17:11:47;15.85;;;6.68;;
23242;SDS011;11790;49.578;11.214;2024-02-26T17:16:48;12.07;;;6.93;;
23242;SDS011;11790;49.578;11.214;2024-02-26T17:21:48;9.88;;;6.13;;
23242;SDS011;11790;49.578;11.214;2024-02-26T17:26:49;15.57;;;6.85;;
23242;SDS011;11790;49.578;11.214;2024-02-26T17:31:49;11.88;;;6.72;;
23242;SDS011;11790;49.578;11.214;2024-02-26T17:36:50;13.25;;;7.50;;
23242;SDS011;11790;49.578;11.214;2024-02-26T17:41:50;13.83;;;7.90;;
23242;SDS011;11790;49.578;11.214;2024-02-26T17:46:52;35.08;;;20.08;;
23242;SDS011;11790;49.578;11.214;2024-02-26T17:51:52;13.88;;;8.82;;
23242;SDS011;11790;49.578;11.214;2024-02-26T17:56:53;14.98;;;8.90;;
23242;SDS011;11790;49.578;11.214;2024-02-26T18:01:54;22.80;;;9.30;;
23242;SDS011;11790;49.578;11.214;2024-02-26T18:06:55;14.55;;;8.85;;
23242;SDS011;11790;49.578;11.214;2024-02-26T18:11:55;13.80;;;8.95;;
23242;SDS011;11790;49.578;11.214;2024-02-26T18:16:55;17.25;;;9.60;;
23242;SDS011;11790;49.578;11.214;2024-02-26T18:21:56;18.92;;;10.20;;
23242;SDS011;11790;49.578;11.214;2024-02-26T18:26:58;17.02;;;9.13;;
23242;SDS011;11790;49.578;11.214;2024-02-26T18:31:59;22.00;;;10.27;;
23242;SDS011;11790;49.578;11.214;2024-02-26T18:36:59;20.60;;;10.43;;
23242;SDS011;11790;49.578;11.214;2024-02-26T18:41:59;18.75;;;10.40;;
23242;SDS011;11790;49.578;11.214;2024-02-26T18:47:00;29.80;;;11.70;;
23242;SDS011;11790;49.578;11.214;2024-02-26T18:52:00;19.35;;;10.70;;
23242;SDS011;11790;49.578;11.214;2024-02-26T18:57:00;20.80;;;10.77;;
23242;SDS011;11790;49.578;11.214;2024-02-26T19:02:01;19.70;;;11.13;;
23242;SDS011;11790;49.578;11.214;2024-02-26T19:07:01;19.35;;;10.20;;
23242;SDS011;11790;49.578;11.214;2024-02-26T19:12:04;19.65;;;9.77;;
23242;SDS011;11790;49.578;11.214;2024-02-26T19:17:04;16.75;;;9.35;;
23242;SDS011;11790;49.578;11.214;2024-02-26T19:22:05;19.88;;;9.70;;
23242;SDS011;11790;49.578;11.214;2024-02-26T19:27:07;15.20;;;8.77;;
23242;SDS011;11790;49.578;11.214;2024-02-26T19:32:08;20.95;;;10.07;;
23242;SDS011;11790;49.578;11.214;2024-02-26T19:37:11;18.73;;;10.13;;
23242;SDS011;11790;49.578;11.214;2024-02-26T19:42:11;20.00;;;10.00;;
23242;SDS011;11790;49.578;11.214;2024-02-26T19:47:12;18.80;;;9.80;;
23242;SDS011;11790;49.578;11.214;2024-02-26T19:52:13;19.05;;;10.48;;
23242;SDS011;11790;49.578;11.214;2024-02-26T19:57:13;21.67;;;10.02;;
23242;SDS011;11790;49.578;11.214;2024-02-26T20:02:14;21.08;;;10.73;;
23242;SDS011;11790;49.578;11.214;2024-02-26T20:07:14;20.07;;;10.23;;
23242;SDS011;11790;49.578;11.214;2024-02-26T20:12:16;23.55;;;11.50;;
23242;SDS011;11790;49.578;11.214;2024-02-26T20:17:16;21.90;;;11.48;;
23242;SDS011;11790;49.578;11.214;2024-02-26T20:22:17;23.90;;;12.30;;
23242;SDS011;11790;49.578;11.214;2024-02-26T20:27:17;23.80;;;12.33;;
23242;SDS011;11790;49.578;11.214;2024-02-26T20:32:18;21.60;;;11.85;;
23242;SDS011;11790;49.578;11.214;2024-02-26T20:37:21;23.88;;;13.27;;
23242;SDS011;11790;49.578;11.214;2024-02-26T20:42:22;24.25;;;13.88;;
23242;SDS011;11790;49.578;11.214;2024-02-26T20:47:22;25.92;;;13.40;;
23242;SDS011;11790;49.578;11.214;2024-02-26T20:52:23;27.60;;;13.60;;
23242;SDS011;11790;49.578;11.214;2024-02-26T20:57:23;25.10;;;13.60;;
23242;SDS011;11790;49.578;11.214;2024-02-26T21:02:24;25.73;;;13.80;;
23242;SDS011;11790;49.578;11.214;2024-02-26T21:07:24;27.83;;;15.37;;
23242;SDS011;11790;49.578;11.214;2024-02-26T21:12:24;24.38;;;14.23;;
23242;SDS011;11790;49.578;11.214;2024-02-26T21:17:25;27.08;;;14.30;;
23242;SDS011;11790;49.578;11.214;2024-02-26T21:22:25;26.35;;;14.95;;
23242;SDS011;11790;49.578;11.214;2024-02-26T21:27:25;27.40;;;15.00;;
23242;SDS011;11790;49.578;11.214;2024-02-26T21:32:25;28.35;;;15.18;;
23242;SDS011;11790;49.578;11.214;2024-02-26T21:37:26;28.27;;;14.98;;
23242;SDS011;11790;49.578;11.214;2024-02-26T21:42:26;24.33;;;13.77;;
23242;SDS011;11790;49.578;11.214;2024-02-26T21:47:26;26.98;;;13.90;;
23242;SDS011;11790;49.578;11.214;2024-02-26T21:52:27;29.83;;;14.07;;
23242;SDS011;11790;49.578;11.214;2024-02-26T21:57:27;25.75;;;13.65;;
23242;SDS011;11790;49.578;11.214;2024-02-26T22:02:27;27.43;;;14.60;;
23242;SDS011;11790;49.578;11.214;2024-02-26T22:07:27;27.08;;;14.07;;
23242;SDS011;11790;49.578;11.214;2024-02-26T22:12:27;30.02;;;14.70;;
23242;SDS011;11790;49.578;11.214;2024-02-26T22:17:28;25.02;;;12.93;;
23242;SDS011;11790;49.578;11.214;2024-02-26T22:22:28;23.48;;;12.93;;
23242;SDS011;11790;49.578;11.214;2024-02-26T22:27:28;27.48;;;13.55;;
23242;SDS011;11790;49.578;11.214;2024-02-26T22:32:28;24.88;;;12.75;;
23242;SDS011;11790;49.578;11.214;2024-02-26T22:37:29;20.73;;;12.37;;
23242;SDS011;11790;49.578;11.214;2024-02-26T22:42:29;26.10;;;13.93;;
23242;SDS011;11790;49.578;11.214;2024-02-26T22:47:30;27.23;;;14.32;;
23242;SDS011;11790;49.578;11.214;2024-02-26T22:52:31;30.92;;;14.88;;
23242;SDS011;11790;49.578;11.214;2024-02-26T22:57:32;28.17;;;15.10;;
23242;SDS011;11790;49.578;11.214;2024-02-26T23:02:32;33.00;;;17.85;;
23242;SDS011;11790;49.578;11.214;2024-02-26T23:07:33;36.58;;;18.60;;
23242;SDS011;11790;49.578;11.214;2024-02-26T23:12:34;35.63;;;17.48;;
23242;SDS011;11790;49.578;11.214;2024-02-26T23:17:34;33.92;;;17.70;;
23242;SDS011;11790;49.578;11.214;2024-02-26T23:22:35;33.72;;;18.50;;
23242;SDS011;11790;49.578;11.214;2024-02-26T23:27:35;34.25;;;17.88;;
23242;SDS011;11790;49.578;11.214;2024-02-26T23:32:36;37.35;;;19.48;;
23242;SDS011;11790;49.578;11.214;2024-02-26T23:37:37;35.58;;;17.60;;
23242;SDS011;11790;49.578;11.214;2024-02-26T23:42:37;33.30;;;18.02;;
23242;SDS011;11790;49.578;11.214;2024-02-26T23:47:37;38.85;;;18.00;;
23242;SDS011;11790;49.578;11.214;2024-02-26T23:52:37;34.70;;;18.00;;
23242;SDS011;11790;49.578;11.214;2024-02-26T23:57:38;37.22;;;17.30;;
